Aviation Digital Data Service (ADDS)

Output produced by METARs form (1120 UTC 18 June 2019)
found at http://www.aviationweather.gov/metar/data/
 
Forecast for: LFMN (NICE/COTE D'AZUR, FR)
Text: TAF LFMN 180800Z 1809/1915 15010KT CAVOK
Forecast period: 0900 to 2000 UTC 18 June 2019
Forecast type: FROM: standard forecast or significant change
Winds: from the SSE (150 degrees) at 12 MPH (10 knots; 5.1 m/s)
Visibility: 6 or more miles 10+ km)
Ceiling: unknown
Clouds: missing
Weather: NSW  (no significant weather)
Text: BECMG 1820/1822 33010KT CAVOK
Forecast period: 2000 UTC 18 June 2019 to 1500 UTC 19 June 2019
Forecast type: BECOMING: Conditions expected to become as follows by 2200 UTC 18 June 2019
Winds: from the NNW (330 degrees) at 12 MPH (10 knots; 5.1 m/s)
Visibility: 6 or more miles 10+ km)
Ceiling: unknown
Clouds: missing
Weather: NSW  (no significant weather)
Text: TEMPO 1903/1914 10005KT BKN010
Forecast period: 0300 to 1400 UTC 19 June 2019
Forecast type: TEMPORARY: The following changes expected for less than half the time period
Winds: from the E (100 degrees) at 6 MPH (5 knots; 2.6 m/s)
Visibility: missing
Ceiling: 1000 feet AGL
Clouds: broken clouds at 1000 feet AGL
Weather: no significant weather forecast for this period